Time;durP1;ratioP1;P1;durP2;ratioP2;P2;SDS_P1;SDS_P2;PMS_P1;PMS_P2;Temp;Humidity;BMP_temperature;BMP_pressure;BME280_temperature;BME280_humidity;BME280_pressure;Samples;Min_cycle;Max_cycle;Signal;HPM_P1;HPM_P2
2022/07/07 00:01:58;;;;;;;1.10;0.90;;;;;;;12.81;92.88;101052.84;4959395;28;20047;-80
2022/07/07 00:04:25;;;;;;;1.90;1.10;;;;;;;12.81;93.39;101047.56;4942298;28;20519;-80
2022/07/07 00:06:52;;;;;;;1.63;1.00;;;;;;;12.82;93.76;101046.63;4976092;28;20039;-80
2022/07/07 00:09:18;;;;;;;1.30;0.95;;;;;;;12.88;93.76;101037.69;4955394;28;20122;-82
2022/07/07 00:11:45;;;;;;;1.83;1.08;;;;;;;12.89;93.93;101040.28;4949829;28;20067;-82
2022/07/07 00:14:12;;;;;;;0.95;0.80;;;;;;;12.90;94.19;101036.72;4942915;28;20069;-81
2022/07/07 00:16:41;;;;;;;3.35;1.02;;;;;;;12.96;93.70;101031.28;4943496;28;20129;-80
2022/07/07 00:19:08;;;;;;;1.65;0.95;;;;;;;12.98;93.20;101028.59;4979308;28;20061;-80
2022/07/07 00:21:36;;;;;;;1.70;0.98;;;;;;;13.01;93.09;101027.63;4944773;28;20122;-81
2022/07/07 00:24:03;;;;;;;1.20;0.90;;;;;;;13.05;93.08;101018.69;4974894;28;20119;-80
2022/07/07 00:26:31;;;;;;;1.38;0.90;;;;;;;13.10;92.53;101028.25;4961947;28;20545;-81
2022/07/07 00:28:58;;;;;;;2.03;1.00;;;;;;;13.12;91.21;101025.59;4959260;28;20602;-80
2022/07/07 00:31:25;;;;;;;1.85;0.90;;;;;;;13.16;90.13;101029.91;4962409;28;20039;-81
2022/07/07 00:33:52;;;;;;;2.28;1.40;;;;;;;13.31;87.57;101010.97;4965522;28;20043;-79
2022/07/07 00:36:19;;;;;;;1.15;1.00;;;;;;;13.44;86.29;101015.03;4978339;28;20038;-81
2022/07/07 00:38:45;;;;;;;1.83;1.10;;;;;;;13.48;85.48;101011.41;4973173;28;20141;-80
2022/07/07 00:41:13;;;;;;;3.30;1.20;;;;;;;13.61;84.34;101019.03;4961906;28;20046;-81
2022/07/07 00:43:42;;;;;;;2.22;1.20;;;;;;;13.89;81.20;101014.69;4994960;28;20039;-83
2022/07/07 00:46:09;;;;;;;1.25;0.82;;;;;;;14.00;79.36;101009.94;4963890;28;20036;-83
2022/07/07 00:48:37;;;;;;;3.75;1.50;;;;;;;13.99;79.30;101008.22;4955347;28;20050;-80
2022/07/07 00:51:05;;;;;;;1.55;0.90;;;;;;;14.07;78.38;101008.84;4963534;28;20129;-80
2022/07/07 00:53:32;;;;;;;1.80;1.10;;;;;;;14.14;79.22;101006.03;4948674;28;20445;-81
2022/07/07 00:55:59;;;;;;;4.60;1.15;;;;;;;14.08;79.82;101007.06;4953613;28;20074;-80
2022/07/07 00:58:26;;;;;;;3.42;1.10;;;;;;;14.17;81.04;101003.25;4968422;28;20491;-81
2022/07/07 01:00:53;;;;;;;3.10;1.30;;;;;;;14.13;82.04;101006.94;4971557;28;20126;-81
2022/07/07 01:03:20;;;;;;;2.97;1.05;;;;;;;14.14;82.00;101000.72;4970536;28;20396;-80
2022/07/07 01:05:48;;;;;;;1.30;1.10;;;;;;;14.09;83.41;100998.19;4957505;28;20039;-81
2022/07/07 01:08:15;;;;;;;1.67;0.95;;;;;;;14.13;83.26;100998.97;4959077;28;20122;-82
2022/07/07 01:10:46;;;;;;;3.58;1.10;;;;;;;14.10;85.39;100999.91;4981430;28;20102;-83
2022/07/07 01:13:13;;;;;;;2.85;1.10;;;;;;;14.04;86.61;100998.31;4957970;28;20075;-84
2022/07/07 01:15:40;;;;;;;2.60;1.08;;;;;;;13.97;87.72;100985.25;4964525;28;20444;-82
2022/07/07 01:18:06;;;;;;;1.52;1.10;;;;;;;13.86;90.09;100995.31;4980759;28;20050;-81
2022/07/07 01:20:34;;;;;;;2.35;1.30;;;;;;;13.81;94.32;100987.50;4957487;28;20050;-81
2022/07/07 01:23:01;;;;;;;3.03;1.00;;;;;;;13.71;94.72;100988.66;4958248;28;20162;-81
2022/07/07 01:25:28;;;;;;;1.35;1.10;;;;;;;13.65;97.03;100995.00;4959451;28;20091;-83
2022/07/07 01:27:55;;;;;;;2.13;1.38;;;;;;;13.65;98.24;100992.34;4957595;29;20050;-82
2022/07/07 01:30:23;;;;;;;3.38;1.10;;;;;;;13.49;99.90;100986.59;4943909;28;20070;-84
2022/07/07 01:32:50;;;;;;;2.70;1.60;;;;;;;13.44;100.00;100983.19;4953826;28;20047;-83
2022/07/07 01:35:17;;;;;;;2.28;1.10;;;;;;;13.38;100.00;100978.06;4958948;28;20464;-81
2022/07/07 01:37:44;;;;;;;3.42;1.75;;;;;;;13.33;100.00;100984.41;4968059;28;20045;-84
2022/07/07 01:40:10;;;;;;;1.77;1.40;;;;;;;13.20;100.00;100970.56;4967115;28;20042;-85
2022/07/07 01:42:37;;;;;;;2.80;1.50;;;;;;;13.12;100.00;100972.53;4966221;28;20067;-83
2022/07/07 01:45:04;;;;;;;2.08;1.20;;;;;;;13.09;100.00;100972.59;4976284;28;20062;-84
2022/07/07 01:47:31;;;;;;;1.83;1.30;;;;;;;13.07;100.00;100970.00;4952859;28;20039;-85
2022/07/07 01:49:58;;;;;;;2.00;1.23;;;;;;;12.99;100.00;100960.50;4964268;28;20071;-83
2022/07/07 01:52:25;;;;;;;2.80;1.35;;;;;;;12.98;100.00;100959.63;4956572;28;20110;-84
2022/07/07 01:54:51;;;;;;;2.40;1.40;;;;;;;12.99;100.00;100960.50;4969328;28;20117;-83
2022/07/07 01:57:18;;;;;;;3.22;1.50;;;;;;;12.99;100.00;100955.19;4969695;28;20052;-86
2022/07/07 01:59:45;;;;;;;3.45;1.60;;;;;;;13.05;100.00;100955.03;4954206;28;20050;-86
2022/07/07 02:02:13;;;;;;;3.30;1.40;;;;;;;12.95;100.00;100960.59;4964753;28;20043;-84
2022/07/07 02:04:40;;;;;;;3.22;1.45;;;;;;;12.98;100.00;100945.50;4959830;28;20035;-83
2022/07/07 02:07:07;;;;;;;4.45;1.98;;;;;;;12.89;100.00;100951.91;4977005;23;20042;-77
2022/07/07 02:09:33;;;;;;;1.83;1.50;;;;;;;12.93;100.00;100946.47;4962909;28;20038;-80
2022/07/07 02:12:00;;;;;;;1.65;1.48;;;;;;;12.80;100.00;100953.00;4942397;28;20099;-79
2022/07/07 02:14:27;;;;;;;4.03;1.85;;;;;;;12.77;100.00;100945.13;4937444;29;20047;-82
2022/07/07 02:16:55;;;;;;;2.50;1.40;;;;;;;12.70;100.00;100943.56;4951683;29;20090;-79
2022/07/07 02:19:21;;;;;;;2.17;1.60;;;;;;;12.71;100.00;100950.59;4918842;29;20134;-77
2022/07/07 02:21:48;;;;;;;2.85;1.90;;;;;;;12.69;100.00;100939.13;4940248;29;20108;-77
2022/07/07 02:24:15;;;;;;;2.00;1.50;;;;;;;12.74;100.00;100939.03;4953735;28;20039;-78
2022/07/07 02:26:41;;;;;;;2.13;1.83;;;;;;;12.72;100.00;100936.44;4943484;29;20039;-78
2022/07/07 02:29:09;;;;;;;3.65;2.05;;;;;;;12.73;100.00;100932.84;4956333;28;20047;-78
2022/07/07 02:31:36;;;;;;;3.00;1.88;;;;;;;12.75;100.00;100930.16;4930005;29;20126;-78
2022/07/07 02:34:03;;;;;;;4.90;1.80;;;;;;;12.77;100.00;100933.63;4935981;28;20050;-77
2022/07/07 02:36:30;;;;;;;2.95;2.10;;;;;;;12.81;100.00;100935.31;4949707;29;20122;-78
2022/07/07 02:38:56;;;;;;;2.25;2.05;;;;;;;12.73;100.00;100935.50;4932327;29;20048;-77
2022/07/07 02:41:23;;;;;;;2.67;2.05;;;;;;;12.67;100.00;100928.56;4951166;29;20424;-77
2022/07/07 02:43:50;;;;;;;3.55;1.58;;;;;;;12.63;100.00;100934.00;4972147;28;20043;-79
2022/07/07 02:46:18;;;;;;;3.25;1.85;;;;;;;12.56;100.00;100920.03;4954335;28;20035;-79
2022/07/07 02:48:45;;;;;;;3.35;1.65;;;;;;;12.57;100.00;100926.19;4936792;29;20107;-78
2022/07/07 02:51:12;;;;;;;3.13;2.20;;;;;;;12.60;100.00;100926.09;4936934;28;20488;-79
2022/07/07 02:53:38;;;;;;;5.88;2.35;;;;;;;12.61;100.00;100917.25;4941623;29;20444;-78
2022/07/07 02:56:05;;;;;;;3.92;1.77;;;;;;;12.60;100.00;100919.03;4950986;29;20051;-79
2022/07/07 02:58:32;;;;;;;3.47;1.95;;;;;;;12.58;100.00;100914.69;4954803;29;20046;-77
2022/07/07 03:00:59;;;;;;;6.05;1.92;;;;;;;12.57;100.00;100910.28;4935768;29;20401;-79
2022/07/07 03:03:25;;;;;;;2.80;1.90;;;;;;;12.55;100.00;100909.47;4944252;29;20039;-79
2022/07/07 03:05:52;;;;;;;2.58;2.10;;;;;;;12.55;100.00;100912.13;4935578;29;20121;-81
2022/07/07 03:08:19;;;;;;;3.33;2.15;;;;;;;12.55;100.00;100912.13;4934381;29;20045;-80
2022/07/07 03:10:46;;;;;;;5.13;2.92;;;;;;;12.62;100.00;100900.47;4926884;29;20105;-79
2022/07/07 03:13:12;;;;;;;3.45;2.47;;;;;;;12.62;100.00;100900.47;4952541;29;20504;-79
2022/07/07 03:15:39;;;;;;;3.15;2.45;;;;;;;12.66;100.00;100896.81;4950731;29;20400;-80
2022/07/07 03:18:06;;;;;;;4.57;2.63;;;;;;;12.61;100.00;100893.38;4939652;29;20043;-79
2022/07/07 03:20:33;;;;;;;4.25;2.33;;;;;;;12.63;100.00;100896.91;4949813;29;20134;-79
2022/07/07 03:23:00;;;;;;;3.00;1.90;;;;;;;12.66;100.00;100886.19;4935610;29;20051;-80
2022/07/07 03:25:26;;;;;;;3.47;2.60;;;;;;;12.67;100.00;100888.81;4916041;29;20143;-79
2022/07/07 03:27:53;;;;;;;3.25;2.38;;;;;;;12.66;100.00;100879.13;4929632;29;20483;-79
2022/07/07 03:30:20;;;;;;;4.03;2.80;;;;;;;12.70;100.00;100881.72;4919255;29;20584;-80
2022/07/07 03:32:46;;;;;;;3.72;2.85;;;;;;;12.69;100.00;100872.84;4951523;29;20126;-80
2022/07/07 03:35:13;;;;;;;4.50;2.40;;;;;;;12.66;100.00;100868.50;4918754;29;20039;-79
2022/07/07 03:37:40;;;;;;;5.00;2.90;;;;;;;12.70;100.00;100873.75;4941127;29;20460;-79
2022/07/07 03:40:07;;;;;;;3.33;2.50;;;;;;;12.66;100.00;100872.94;4920072;29;20082;-78
2022/07/07 03:42:36;;;;;;;4.20;2.20;;;;;;;12.62;100.00;100876.59;4950517;29;20043;-79
2022/07/07 03:45:04;;;;;;;3.05;2.55;;;;;;;12.67;100.00;100878.22;4943203;29;20053;-79
2022/07/07 03:47:30;;;;;;;2.95;2.45;;;;;;;12.67;100.00;100872.03;4951009;29;20058;-79
2022/07/07 03:49:57;;;;;;;6.50;2.92;;;;;;;12.62;100.00;100860.69;4916963;29;20504;-79
2022/07/07 03:52:24;;;;;;;5.15;3.10;;;;;;;12.66;100.00;100859.69;4950133;28;20035;-79
2022/07/07 03:54:50;;;;;;;3.22;2.70;;;;;;;12.69;100.00;100859.59;4951475;28;20053;-79
2022/07/07 03:57:17;;;;;;;4.40;2.83;;;;;;;12.71;100.00;100859.59;4918228;29;20501;-79
2022/07/07 03:59:44;;;;;;;4.90;2.72;;;;;;;12.63;100.00;100855.34;4926132;29;20051;-80
2022/07/07 04:02:11;;;;;;;7.45;3.30;;;;;;;12.72;100.00;100851.59;4949185;28;20058;-80
2022/07/07 04:04:37;;;;;;;3.42;2.90;;;;;;;12.67;100.00;100846.41;4935245;29;20073;-80
2022/07/07 04:07:04;;;;;;;3.45;3.15;;;;;;;12.73;100.00;100845.38;4914704;29;20111;-80
2022/07/07 04:09:31;;;;;;;3.67;2.80;;;;;;;12.76;100.00;100836.47;4944253;29;20047;-81
2022/07/07 04:11:58;;;;;;;3.30;3.00;;;;;;;12.78;100.00;100839.94;4928173;29;20513;-81
2022/07/07 04:14:24;;;;;;;3.58;2.78;;;;;;;12.76;100.00;100836.47;4932506;29;20043;-81
2022/07/07 04:16:51;;;;;;;3.20;2.67;;;;;;;12.82;100.00;100833.66;4943290;28;20032;-80
2022/07/07 04:19:18;;;;;;;3.35;2.72;;;;;;;12.85;100.00;100829.13;4948051;29;20051;-82
2022/07/07 04:21:44;;;;;;;3.50;2.85;;;;;;;12.84;100.00;100823.88;4920788;29;20126;-80
2022/07/07 04:24:11;;;;;;;4.47;3.20;;;;;;;12.88;100.00;100820.25;4936242;29;20067;-82
2022/07/07 04:26:38;;;;;;;4.63;3.30;;;;;;;12.88;100.00;100815.81;4953649;29;20039;-82
2022/07/07 04:29:05;;;;;;;4.68;3.60;;;;;;;12.90;100.00;100821.06;4940118;28;20078;-80
2022/07/07 04:31:32;;;;;;;4.15;2.78;;;;;;;12.90;100.00;100813.97;4944106;29;20053;-79
2022/07/07 04:33:59;;;;;;;3.85;3.42;;;;;;;12.89;100.00;100812.25;4949393;29;20050;-82
2022/07/07 04:36:25;;;;;;;4.80;3.00;;;;;;;12.87;100.00;100806.13;4924773;29;20062;-80
2022/07/07 04:38:52;;;;;;;4.90;2.80;;;;;;;12.92;100.00;100808.63;4954509;29;20043;-81
2022/07/07 04:41:19;;;;;;;4.43;3.03;;;;;;;12.90;100.00;100802.50;4934158;29;20054;-82
2022/07/07 04:43:46;;;;;;;3.47;3.17;;;;;;;12.89;100.00;100806.06;4936738;28;20043;-80
2022/07/07 04:46:12;;;;;;;3.97;2.92;;;;;;;12.94;100.00;100809.44;4946236;29;20122;-80
2022/07/07 04:48:39;;;;;;;4.93;3.63;;;;;;;12.93;100.00;100802.41;4937669;29;20050;-80
2022/07/07 04:51:06;;;;;;;3.15;2.80;;;;;;;13.01;100.00;100802.19;4927223;29;20062;-80
2022/07/07 04:53:32;;;;;;;3.47;3.00;;;;;;;12.96;100.00;100794.38;4947042;29;20043;-80
2022/07/07 04:56:00;;;;;;;2.78;2.50;;;;;;;12.98;100.00;100797.84;4942084;29;20046;-80
2022/07/07 04:58:26;;;;;;;4.32;3.03;;;;;;;13.06;100.00;100792.34;4952529;29;20039;-80
2022/07/07 05:00:53;;;;;;;3.65;2.97;;;;;;;13.05;100.00;100794.13;4952859;29;20122;-79
2022/07/07 05:03:26;;;;;;;4.30;2.80;;;;;;;13.01;100.00;100789.78;4937028;29;20043;-81
2022/07/07 05:05:54;;;;;;;3.15;2.85;;;;;;;13.05;100.00;100798.56;4935913;29;20575;-80
2022/07/07 05:08:20;;;;;;;3.00;2.70;;;;;;;12.98;100.00;100787.25;4935840;29;20039;-80
2022/07/07 05:10:47;;;;;;;2.53;2.28;;;;;;;13.05;100.00;100788.81;4902877;29;20061;-81
2022/07/07 05:13:14;;;;;;;3.60;3.03;;;;;;;13.03;100.00;100785.34;4948078;28;20113;-79
2022/07/07 05:15:40;;;;;;;2.67;2.45;;;;;;;13.08;100.00;100791.38;4939658;28;20396;-79
2022/07/07 05:18:07;;;;;;;3.28;2.83;;;;;;;13.14;100.00;100788.53;4957642;28;20062;-80
2022/07/07 05:20:34;;;;;;;4.05;3.00;;;;;;;13.17;100.00;100785.78;4926968;29;20051;-80
2022/07/07 05:23:00;;;;;;;3.55;2.78;;;;;;;13.28;100.00;100779.31;4948484;29;20048;-80
2022/07/07 05:25:27;;;;;;;2.38;2.05;;;;;;;13.30;100.00;100778.38;4898263;29;20110;-80
2022/07/07 05:27:54;;;;;;;1.75;1.60;;;;;;;13.32;100.00;100776.56;4937996;29;20704;-79
2022/07/07 05:30:21;;;;;;;2.03;1.83;;;;;;;13.39;100.00;100777.25;4946537;28;20054;-80
2022/07/07 05:32:48;;;;;;;2.63;1.90;;;;;;;13.41;100.00;100778.06;4936343;29;20059;-80
2022/07/07 05:35:16;;;;;;;2.15;1.85;;;;;;;13.50;100.00;100778.66;4954136;28;20050;-80
2022/07/07 05:37:42;;;;;;;1.58;1.38;;;;;;;13.50;100.00;100776.00;4938125;29;20700;-80
2022/07/07 05:40:10;;;;;;;2.20;2.00;;;;;;;13.60;100.00;100778.34;4948128;29;20480;-80
2022/07/07 05:42:36;;;;;;;2.75;1.88;;;;;;;13.61;100.00;100780.97;4938533;29;20043;-80
2022/07/07 05:45:04;;;;;;;6.50;1.92;;;;;;;13.65;100.00;100773.78;4942575;29;20043;-80
2022/07/07 05:47:31;;;;;;;1.75;1.50;;;;;;;13.68;100.00;100781.66;4933395;29;20035;-80
2022/07/07 05:49:58;;;;;;;2.30;1.60;;;;;;;13.70;100.00;100778.00;4941564;29;20500;-80
2022/07/07 05:52:26;;;;;;;1.60;1.50;;;;;;;13.72;100.00;100788.63;4929676;29;20047;-80
2022/07/07 05:54:52;;;;;;;2.47;1.88;;;;;;;13.73;100.00;100785.03;4943146;28;20047;-80
2022/07/07 05:57:19;;;;;;;1.90;1.60;;;;;;;13.74;100.00;100784.13;4934135;29;20039;-81
2022/07/07 05:59:46;;;;;;;2.38;1.45;;;;;;;13.77;100.00;100782.22;4945259;29;20126;-80
2022/07/07 06:02:12;;;;;;;2.47;1.58;;;;;;;13.75;100.00;100783.19;4956540;28;20039;-81
2022/07/07 06:04:39;;;;;;;1.90;1.52;;;;;;;13.72;100.00;100789.47;4949448;29;20162;-80
2022/07/07 06:07:06;;;;;;;1.75;1.50;;;;;;;13.72;100.00;100785.97;4936814;29;20440;-80
2022/07/07 06:09:33;;;;;;;2.75;1.40;;;;;;;13.75;100.00;100783.19;4919660;29;20039;-80
2022/07/07 06:11:59;;;;;;;1.73;1.60;;;;;;;13.74;100.00;100789.44;4929333;29;20126;-80
2022/07/07 06:14:26;;;;;;;1.67;1.55;;;;;;;13.76;100.00;100788.44;4921259;29;20052;-80
2022/07/07 06:16:53;;;;;;;1.80;1.50;;;;;;;13.73;100.00;100788.56;4926983;29;20584;-79
2022/07/07 06:19:20;;;;;;;2.80;1.80;;;;;;;13.73;100.00;100782.38;4943336;29;20047;-79
2022/07/07 06:21:46;;;;;;;2.92;1.40;;;;;;;13.70;100.00;100775.34;4932632;29;20110;-81
2022/07/07 06:24:13;;;;;;;1.98;1.80;;;;;;;13.77;100.00;100776.03;4948376;28;20042;-79
2022/07/07 06:26:40;;;;;;;2.38;1.60;;;;;;;13.76;100.00;100782.28;4915067;29;20060;-80
2022/07/07 06:29:07;;;;;;;3.33;2.10;;;;;;;13.82;100.00;100784.75;4933087;29;20040;-81
2022/07/07 06:31:33;;;;;;;2.40;1.83;;;;;;;13.80;100.00;100778.63;4932227;29;20055;-81
2022/07/07 06:34:00;;;;;;;2.22;1.80;;;;;;;13.82;100.00;100776.78;4902543;29;20044;-80
2022/07/07 06:36:27;;;;;;;2.22;2.00;;;;;;;13.80;100.00;100778.63;4930827;29;21428;-80
2022/07/07 06:38:54;;;;;;;2.95;2.65;;;;;;;13.80;100.00;100783.94;4941669;29;20036;-81
2022/07/07 06:41:24;;;;;;;2.45;2.20;;;;;;;13.79;100.00;100775.09;4931712;29;20052;-80
2022/07/07 06:43:51;;;;;;;3.35;2.10;;;;;;;13.82;100.00;100779.44;4932688;29;20051;-81
2022/07/07 06:46:18;;;;;;;3.30;2.22;;;;;;;13.82;100.00;100783.88;4918991;29;20051;-80
2022/07/07 06:48:45;;;;;;;3.50;2.28;;;;;;;13.84;100.00;100779.38;4951855;29;20038;-79
2022/07/07 06:51:11;;;;;;;3.63;2.20;;;;;;;13.86;100.00;100777.53;4932468;29;20460;-79
2022/07/07 06:53:38;;;;;;;2.42;2.20;;;;;;;13.83;100.00;100770.53;4949077;28;20134;-80
2022/07/07 06:56:05;;;;;;;3.40;3.10;;;;;;;13.87;100.00;100769.50;4930132;29;20039;-81
2022/07/07 06:58:31;;;;;;;4.65;3.20;;;;;;;13.90;100.00;100771.22;4950648;28;20038;-80
2022/07/07 07:00:58;;;;;;;3.85;2.70;;;;;;;13.88;100.00;100776.59;4943632;29;20049;-80
2022/07/07 07:03:25;;;;;;;2.85;2.60;;;;;;;13.84;100.00;100777.59;4936167;29;20569;-79
2022/07/07 07:05:53;;;;;;;3.22;2.65;;;;;;;13.95;100.00;100767.47;4949158;28;20397;-79
2022/07/07 07:08:24;;;;;;;3.22;2.92;;;;;;;13.92;100.00;100778.22;4939799;29;20417;-80
2022/07/07 07:10:50;;;;;;;3.85;3.00;;;;;;;13.94;100.00;100770.19;4935353;29;20051;-82
2022/07/07 07:13:17;;;;;;;3.25;2.80;;;;;;;13.95;100.00;100764.81;4901427;29;20138;-81
2022/07/07 07:15:45;;;;;;;3.35;2.97;;;;;;;14.02;100.00;100776.13;4934790;29;20039;-80
2022/07/07 07:18:12;;;;;;;3.10;2.80;;;;;;;14.08;100.00;100770.63;4935962;29;20040;-80
2022/07/07 07:20:40;;;;;;;4.15;3.47;;;;;;;14.08;100.00;100768.81;4948629;29;20051;-81
2022/07/07 07:23:07;;;;;;;3.92;2.78;;;;;;;14.04;100.00;100772.53;4937427;29;20039;-80
2022/07/07 07:25:35;;;;;;;4.57;3.63;;;;;;;14.11;100.00;100769.63;4935294;29;20134;-81
2022/07/07 07:28:02;;;;;;;3.38;2.53;;;;;;;14.06;100.00;100767.16;4936734;29;20412;-80
2022/07/07 07:30:29;;;;;;;3.78;3.38;;;;;;;14.16;100.00;100762.38;4935086;29;20132;-80
2022/07/07 07:32:55;;;;;;;4.53;3.60;;;;;;;14.21;100.00;100761.31;4937010;29;20126;-80
2022/07/07 07:35:22;;;;;;;4.68;3.00;;;;;;;14.25;100.00;100767.38;4950279;28;20560;-79
2022/07/07 07:37:49;;;;;;;3.40;3.03;;;;;;;14.29;100.00;100763.69;4952547;29;20514;-79
2022/07/07 07:40:16;;;;;;;3.50;2.90;;;;;;;14.33;100.00;100765.34;4918280;29;20396;-80
2022/07/07 07:42:42;;;;;;;3.63;3.10;;;;;;;14.31;100.00;100767.19;4951173;29;20501;-80
2022/07/07 07:45:09;;;;;;;3.72;2.92;;;;;;;14.30;100.00;100752.16;4956929;28;20047;-80
2022/07/07 07:47:38;;;;;;;3.30;2.72;;;;;;;14.28;100.00;100759.31;4971125;28;20488;-80
2022/07/07 07:50:05;;;;;;;3.30;3.00;;;;;;;14.26;100.00;100758.50;4941477;29;20035;-80
2022/07/07 07:52:32;;;;;;;4.13;3.70;;;;;;;14.27;100.00;100757.56;4938191;29;20515;-80
2022/07/07 07:54:59;;;;;;;3.72;3.30;;;;;;;14.35;100.00;100766.16;4953594;28;20039;-80
2022/07/07 07:57:26;;;;;;;4.22;2.90;;;;;;;14.31;100.00;100762.75;4938229;29;20039;-81
2022/07/07 07:59:52;;;;;;;3.65;3.10;;;;;;;14.41;100.00;100757.09;4931411;29;20196;-80
2022/07/07 08:02:19;;;;;;;4.35;3.10;;;;;;;14.40;100.00;100753.59;4955361;28;20051;-79
2022/07/07 08:04:46;;;;;;;3.97;3.58;;;;;;;14.46;100.00;100758.72;4927175;28;20051;-80
2022/07/07 08:07:12;;;;;;;3.50;3.20;;;;;;;14.50;100.00;100756.81;4952549;29;20035;-79
2022/07/07 08:09:42;;;;;;;4.05;3.20;;;;;;;14.59;100.00;100754.69;4938527;28;20412;-81
2022/07/07 08:12:09;;;;;;;3.50;3.20;;;;;;;14.62;100.00;100756.38;4940752;29;20051;-78
2022/07/07 08:14:35;;;;;;;3.90;3.60;;;;;;;14.69;100.00;100763.22;4946467;29;20039;-79
2022/07/07 08:17:02;;;;;;;3.53;3.22;;;;;;;14.70;100.00;100761.41;4964500;28;20058;-79
2022/07/07 08:19:29;;;;;;;3.08;2.60;;;;;;;14.73;100.00;100770.16;4938615;29;20051;-80
2022/07/07 08:21:56;;;;;;;3.00;2.60;;;;;;;14.72;100.00;100768.44;4924711;29;20079;-79
2022/07/07 08:24:23;;;;;;;4.55;3.35;;;;;;;14.71;100.00;100769.34;4937550;28;20129;-80
2022/07/07 08:26:50;;;;;;;4.18;3.78;;;;;;;14.73;100.00;100769.31;4969786;28;20515;-79
2022/07/07 08:29:17;;;;;;;5.18;3.88;;;;;;;14.70;100.00;100761.41;4956364;29;20043;-78
2022/07/07 08:31:43;;;;;;;4.28;3.13;;;;;;;14.66;100.00;100768.66;4937149;29;20740;-79
2022/07/07 08:34:10;;;;;;;4.35;4.00;;;;;;;14.65;100.00;100766.91;4954661;28;20130;-79
2022/07/07 08:36:37;;;;;;;4.00;3.53;;;;;;;14.64;100.00;100771.38;4922328;28;20043;-79
2022/07/07 08:39:04;;;;;;;4.22;3.80;;;;;;;14.67;100.00;100769.53;4936918;29;20051;-79
2022/07/07 08:41:31;;;;;;;3.78;3.47;;;;;;;14.68;100.00;100768.59;4952612;29;20123;-78
2022/07/07 08:43:58;;;;;;;4.00;3.70;;;;;;;14.72;100.00;100768.44;5021289;23;20051;-85
2022/07/07 08:46:24;;;;;;;3.40;3.10;;;;;;;14.71;100.00;100765.81;4931848;29;20044;-83
2022/07/07 08:48:53;;;;;;;3.80;3.40;;;;;;;14.76;100.00;100772.72;4937631;29;20039;-85
2022/07/07 08:51:20;;;;;;;4.30;3.85;;;;;;;14.79;100.00;100769.06;4952048;28;20126;-86
2022/07/07 08:53:48;;;;;;;3.58;3.28;;;;;;;14.86;100.00;100768.78;4938465;28;20055;-85
2022/07/07 08:56:16;;;;;;;4.65;3.47;;;;;;;14.84;100.00;100767.13;4939678;28;20047;-83
2022/07/07 08:58:43;;;;;;;3.33;2.80;;;;;;;14.90;100.00;100767.78;4942677;28;20039;-86
2022/07/07 09:01:29;;;;;;;2.95;2.75;;;;;;;15.02;100.00;100770.91;4947858;28;20109;-87
2022/07/07 09:03:55;;;;;;;3.20;2.90;;;;;;;15.01;100.00;100769.16;4955634;28;20050;-86
2022/07/07 09:06:22;;;;;;;3.20;2.90;;;;;;;14.99;100.00;100771.88;4921612;28;20102;-85
2022/07/07 09:08:50;;;;;;;3.38;3.08;;;;;;;15.09;100.00;100770.63;4965867;28;20066;-84
2022/07/07 09:11:28;;;;;;;3.78;3.22;;;;;;;15.18;100.00;100774.72;4961060;28;20050;-85
2022/07/07 09:14:12;;;;;;;3.70;2.97;;;;;;;15.23;100.00;100775.44;4955231;28;20051;-82
2022/07/07 09:16:39;;;;;;;;;;;;;;;15.16;100.00;100774.78;4955264;28;20043;-82
2022/07/07 09:19:18;;;;;;;3.40;3.10;;;;;;;15.21;100.00;100778.13;4953361;28;19926;-85
2022/07/07 09:21:46;;;;;;;3.95;3.22;;;;;;;15.17;100.00;100779.19;4955627;28;20043;-85
2022/07/07 09:24:13;;;;;;;3.75;3.45;;;;;;;15.28;100.00;100783.22;4946770;28;20133;-83
2022/07/07 09:26:51;;;;;;;5.53;3.38;;;;;;;15.32;100.00;100779.53;4923990;28;20066;-83
2022/07/07 09:29:19;;;;;;;4.03;3.60;;;;;;;15.37;100.00;100775.75;4945537;28;20035;-85
2022/07/07 09:31:49;;;;;;;4.20;3.30;;;;;;;15.34;100.00;100780.34;4937491;28;20404;-85
2022/07/07 09:34:16;;;;;;;3.80;3.50;;;;;;;15.31;100.00;100769.81;4938667;28;20113;-83
2022/07/07 09:39:43;;;;;;;4.75;4.35;;;;;;;15.38;100.00;100771.28;4955963;28;20428;-85
2022/07/07 09:42:34;;;;;;;4.80;4.35;;;;;;;15.43;100.00;100778.19;4963004;28;20129;-82
2022/07/07 09:45:10;;;;;;;5.10;4.60;;;;;;;15.60;100.00;100776.66;4956387;28;20062;-85
2022/07/07 09:47:37;;;;;;;5.45;4.95;;;;;;;15.62;100.00;100775.69;4955178;28;20053;-83
2022/07/07 09:50:14;;;;;;;6.38;5.13;;;;;;;15.71;100.00;100774.47;4921771;28;20068;-84
2022/07/07 09:52:42;;;;;;;;;;;;;;;15.73;100.00;100776.16;4943004;28;20050;-82
2022/07/07 09:55:11;;;;;;;5.45;4.88;;;;;;;15.81;100.00;100782.94;4950730;28;19928;-83
2022/07/07 09:57:39;;;;;;;4.65;4.20;;;;;;;15.87;100.00;100788.03;4962707;28;20046;-85
2022/07/07 10:00:06;;;;;;;4.78;4.35;;;;;;;15.87;100.00;100786.25;4936472;28;20481;-83
2022/07/07 10:02:36;;;;;;;4.85;4.35;;;;;;;15.99;100.00;100784.91;4953248;28;20412;-82
2022/07/07 10:05:05;;;;;;;4.70;4.30;;;;;;;16.05;100.00;100781.97;4936497;28;20055;-83
2022/07/07 10:07:37;;;;;;;5.40;4.90;;;;;;;16.19;100.00;100789.41;4956489;28;20038;-83
2022/07/07 10:10:07;;;;;;;5.18;4.68;;;;;;;16.18;100.00;100777.88;4952820;28;20319;-83
2022/07/07 10:12:38;;;;;;;4.20;3.80;;;;;;;16.20;100.00;100789.31;4926866;29;20144;-84
2022/07/07 10:15:11;;;;;;;6.72;5.78;;;;;;;16.24;100.00;100787.41;4937652;29;20043;-83
2022/07/07 10:17:39;;;;;;;4.75;4.35;;;;;;;16.26;100.00;100789.06;4939536;28;20068;-82
2022/07/07 10:20:07;;;;;;;5.60;5.00;;;;;;;16.24;100.00;100792.75;4945569;28;20496;-83
2022/07/07 10:22:34;;;;;;;6.25;5.22;;;;;;;16.26;100.00;100794.41;4953247;28;20042;-82
2022/07/07 10:25:03;;;;;;;5.63;5.13;;;;;;;16.28;100.00;100794.34;4938717;28;20928;-83
2022/07/07 10:27:30;;;;;;;5.03;4.53;;;;;;;16.22;100.00;100791.91;4948603;28;20050;-83
2022/07/07 10:30:02;;;;;;;4.82;4.43;;;;;;;16.19;100.00;100792.06;4937086;28;20230;-83
2022/07/07 10:32:31;;;;;;;4.90;4.47;;;;;;;16.28;100.00;100794.34;4952975;28;20492;-82
2022/07/07 10:35:02;;;;;;;6.22;5.63;;;;;;;16.12;100.00;100794.09;4982905;28;20056;-81
2022/07/07 10:37:43;;;;;;;6.22;5.63;;;;;;;16.24;100.00;100798.09;4958438;28;20046;-83
2022/07/07 10:40:36;;;;;;;6.28;5.68;;;;;;;16.20;100.00;100793.78;4955803;28;20046;-82
2022/07/07 10:43:26;;;;;;;5.50;5.00;;;;;;;16.16;100.00;100805.53;4955346;28;20066;-81
2022/07/07 10:45:54;;;;;;;5.78;4.93;;;;;;;16.20;100.00;100802.66;4956162;28;20522;-81
2022/07/07 10:48:57;;;;;;;5.35;4.85;;;;;;;16.29;100.00;100801.41;4934706;28;20039;-83
2022/07/07 10:51:25;;;;;;;6.15;5.55;;;;;;;16.33;100.00;100800.34;4940438;28;20050;-83
2022/07/07 10:54:06;;;;;;;6.07;5.57;;;;;;;16.39;100.00;100805.41;4935481;28;20066;-80
2022/07/07 10:56:51;;;;;;;4.82;4.43;;;;;;;16.44;100.00;100798.09;4949319;28;20051;-82
2022/07/07 10:59:20;;;;;;;5.60;5.10;;;;;;;16.49;100.00;100795.25;4949255;28;20047;-82
2022/07/07 11:02:02;;;;;;;5.50;5.00;;;;;;;16.58;100.00;100803.72;4968889;28;20455;-82
2022/07/07 11:04:41;;;;;;;5.53;5.03;;;;;;;16.75;100.00;100794.16;4959690;28;20042;-81
2022/07/07 11:07:17;;;;;;;5.30;4.80;;;;;;;16.74;100.00;100797.75;4951524;28;20113;-81
2022/07/07 11:10:09;;;;;;;6.28;5.68;;;;;;;16.79;100.00;100791.25;4916684;28;20050;-82
2022/07/07 11:12:44;;;;;;;5.10;4.60;;;;;;;16.77;100.00;100785.13;4939857;28;20089;-82
2022/07/07 11:15:32;;;;;;;5.55;5.05;;;;;;;16.80;100.00;100794.78;4948030;28;20041;-81
2022/07/07 11:18:17;;;;;;;6.05;5.45;;;;;;;16.88;100.00;100798.00;4947254;28;20511;-80
2022/07/07 11:20:59;;;;;;;6.38;5.72;;;;;;;16.87;100.00;100797.13;4951945;28;20323;-81
2022/07/07 11:23:50;;;;;;;5.90;5.30;;;;;;;16.91;100.00;100799.69;4937686;28;20053;-80
2022/07/07 11:26:25;;;;;;;6.38;5.68;;;;;;;16.92;100.00;100812.94;4962998;28;20069;-82
2022/07/07 11:28:55;;;;;;;6.50;5.82;;;;;;;16.93;100.00;100813.81;4940473;28;20435;-80